createdAt,value
2022-10-17T10:51:29.850Z,102271.81
2022-10-17T10:54:04.644Z,102290.31
2022-10-17T10:56:38.837Z,102286.69
2022-10-17T10:59:42.768Z,102281.66
2022-10-17T11:02:24.572Z,102244.78
2022-10-17T11:05:06.745Z,102278.50
2022-10-17T11:07:40.698Z,102296.25
2022-10-17T11:10:28.278Z,102259.28
2022-10-17T11:13:11.734Z,102277.59
2022-10-17T11:15:47.547Z,102273.81
2022-10-17T11:18:26.862Z,102287.19
2022-10-17T11:20:59.766Z,102272.94
2022-10-17T11:23:43.112Z,102274.44
2022-10-17T11:26:17.621Z,102245.63
2022-10-17T11:28:44.388Z,102259.97
2022-10-17T11:31:14.883Z,102275.47
2022-10-17T11:33:46.856Z,102275.66
2022-10-17T11:36:16.822Z,102274.50
2022-10-17T11:38:52.793Z,102265.06
2022-10-17T11:41:29.909Z,102258.31
2022-10-17T11:44:24.324Z,102250.91
2022-10-17T11:46:57.398Z,102267.72
2022-10-17T11:49:42.290Z,102257.50
2022-10-17T11:52:44.427Z,102249.72
2022-10-17T11:55:19.785Z,102274.50
2022-10-17T11:57:52.341Z,102224.09
2022-10-17T12:00:28.119Z,102230.28
2022-10-17T12:03:16.179Z,102235.06
2022-10-17T12:05:50.798Z,102228.88
2022-10-17T12:08:26.922Z,102244.41
2022-10-17T12:11:20.133Z,102242.53
2022-10-17T12:13:49.106Z,102242.38
2022-10-17T12:16:18.690Z,102251.63
2022-10-17T12:18:51.728Z,102247.28
2022-10-17T12:21:18.631Z,102235.00
2022-10-17T12:23:53.760Z,102238.69
2022-10-17T12:26:28.818Z,102230.56
2022-10-17T12:28:56.694Z,102230.91
2022-10-17T12:31:28.534Z,102209.88
2022-10-17T12:34:04.827Z,102237.56
2022-10-17T12:36:31.418Z,102233.03
2022-10-17T12:39:04.096Z,102238.97
2022-10-17T12:41:39.671Z,102225.88
2022-10-17T12:44:28.741Z,102220.53
2022-10-17T12:47:05.231Z,102213.34
2022-10-17T12:49:45.673Z,102201.16
2022-10-17T12:52:17.995Z,102229.06
2022-10-17T12:55:00.151Z,102224.28
2022-10-17T12:57:49.096Z,102218.63
2022-10-17T13:00:49.796Z,102222.53
2022-10-17T13:03:30.703Z,102218.06
2022-10-17T13:06:06.918Z,102228.13
2022-10-17T13:08:39.052Z,102217.59
2022-10-17T13:11:08.037Z,102222.72
2022-10-17T13:13:50.427Z,102227.09
2022-10-17T13:16:36.097Z,102205.97
2022-10-17T13:19:13.131Z,102236.16
2022-10-17T13:21:40.056Z,102234.13
2022-10-17T13:24:30.340Z,102230.28
2022-10-17T13:26:57.097Z,102221.38
2022-10-17T13:29:25.815Z,102224.72
2022-10-17T13:31:55.783Z,102227.00
2022-10-17T13:34:26.184Z,102200.91
2022-10-17T13:36:55.590Z,102230.81
2022-10-17T13:39:38.324Z,102239.84
2022-10-17T13:42:21.453Z,102236.19
2022-10-17T13:44:48.560Z,102240.53
2022-10-17T13:47:33.971Z,102245.09
2022-10-17T13:50:01.134Z,102237.53
2022-10-17T13:52:30.363Z,102238.84
2022-10-17T13:55:17.431Z,102245.59
2022-10-17T13:57:44.432Z,102246.84
2022-10-17T14:00:19.714Z,102240.19
2022-10-17T14:02:46.501Z,102254.41
2022-10-17T14:05:18.552Z,102233.63
2022-10-17T14:08:13.378Z,102225.69
2022-10-17T14:10:43.348Z,102248.34
2022-10-17T14:13:23.066Z,102242.13
2022-10-17T14:15:50.770Z,102235.28
2022-10-17T14:18:33.299Z,102240.22
2022-10-17T14:23:50.728Z,102228.56
2022-10-17T14:26:17.241Z,102236.28
2022-10-17T14:28:47.942Z,102239.84
2022-10-17T14:31:29.951Z,102230.78
2022-10-17T14:33:57.407Z,102243.81
2022-10-17T14:36:37.432Z,102243.06
2022-10-17T14:39:11.898Z,102240.81
2022-10-17T14:41:44.801Z,102239.31
2022-10-17T14:44:32.748Z,102240.25
2022-10-17T14:47:30.140Z,102245.59
2022-10-17T14:50:03.545Z,102243.31
2022-10-17T14:52:32.835Z,102251.72
2022-10-17T14:55:12.612Z,102203.44
2022-10-17T14:57:45.579Z,102252.72
2022-10-17T15:00:17.383Z,102250.25
2022-10-17T15:02:45.354Z,102253.69
2022-10-17T15:05:13.600Z,102236.56
2022-10-17T15:07:41.090Z,102256.31
2022-10-17T15:10:32.114Z,102260.56
2022-10-17T15:13:26.218Z,102272.81
2022-10-17T15:15:51.421Z,102287.97
2022-10-17T15:18:18.124Z,102272.56
2022-10-17T15:20:44.848Z,102280.56
2022-10-17T15:23:11.492Z,102282.13
2022-10-17T15:25:39.119Z,102275.22
2022-10-17T15:28:05.825Z,102288.84
2022-10-17T15:30:36.531Z,102281.94
2022-10-17T15:33:03.496Z,102286.25
2022-10-17T15:35:30.632Z,102272.94
2022-10-17T15:37:57.308Z,102297.03
2022-10-17T15:40:30.557Z,102279.00
2022-10-17T15:42:57.749Z,102298.50
2022-10-17T15:45:24.824Z,102301.03
2022-10-17T15:48:04.215Z,102301.06
2022-10-17T15:50:30.836Z,102308.22
2022-10-17T15:52:57.492Z,102313.47
2022-10-17T15:55:24.168Z,102317.09
2022-10-17T15:57:51.042Z,102294.38
2022-10-17T16:00:23.468Z,102318.28
2022-10-17T16:02:50.784Z,102313.97
2022-10-17T16:05:23.482Z,102324.41
2022-10-17T16:07:50.567Z,102341.34
2022-10-17T16:10:17.799Z,102327.53
2022-10-17T16:12:45.018Z,102344.31
2022-10-17T16:15:18.170Z,102345.25
2022-10-17T16:17:44.972Z,102354.09
2022-10-17T16:20:13.037Z,102351.41
2022-10-17T16:22:42.162Z,102364.31
2022-10-17T16:25:21.545Z,102353.00
2022-10-17T16:27:51.509Z,102368.75
2022-10-17T16:30:18.745Z,102372.63
2022-10-17T16:32:46.280Z,102372.72
2022-10-17T16:35:22.521Z,102369.66
2022-10-17T16:37:49.328Z,102373.34
2022-10-17T16:40:16.770Z,102368.97
2022-10-17T16:42:44.019Z,102378.47
2022-10-17T16:45:17.501Z,102384.53
2022-10-17T16:47:44.336Z,102385.44
2022-10-17T16:50:11.089Z,102398.75
2022-10-17T16:52:37.699Z,102397.19
2022-10-17T16:55:04.950Z,102399.97
2022-10-17T16:57:31.644Z,102401.88
2022-10-17T16:59:58.476Z,102405.47
2022-10-17T17:02:25.193Z,102405.59
2022-10-17T17:04:51.833Z,102368.09
2022-10-17T17:07:19.835Z,102413.56
2022-10-17T17:09:46.563Z,102429.53
2022-10-17T17:12:13.254Z,102421.59
2022-10-17T17:14:39.900Z,102432.38
2022-10-17T17:17:09.583Z,102432.47
2022-10-17T17:19:42.083Z,102419.34
2022-10-17T17:22:08.732Z,102430.84
2022-10-17T17:24:35.402Z,102429.25
2022-10-17T17:27:02.026Z,102431.84
2022-10-17T17:29:28.894Z,102434.44
2022-10-17T17:31:55.510Z,102436.28
2022-10-17T17:34:22.226Z,102438.94
2022-10-17T17:36:49.040Z,102445.94
2022-10-17T17:39:16.116Z,102449.44
2022-10-17T17:41:44.472Z,102446.78
2022-10-17T17:44:16.410Z,102437.88
2022-10-17T17:46:44.194Z,102447.59
2022-10-17T17:49:11.686Z,102441.56
2022-10-17T17:51:39.030Z,102453.00
2022-10-17T17:54:05.754Z,102453.16
2022-10-17T17:56:32.979Z,102445.22
2022-10-17T17:59:02.250Z,102445.22
2022-10-17T18:01:35.114Z,102439.06
2022-10-17T18:04:01.739Z,102447.06
2022-10-17T18:06:29.025Z,102437.50
2022-10-17T18:08:58.110Z,102448.06
2022-10-17T18:11:27.252Z,102445.34
2022-10-17T18:14:06.349Z,102433.97
2022-10-17T18:16:35.105Z,102440.25
2022-10-17T18:19:07.185Z,102423.63
2022-10-17T18:21:34.815Z,102458.00
2022-10-17T18:24:02.179Z,102452.75
2022-10-17T18:26:28.892Z,102454.59
2022-10-17T18:28:55.649Z,102444.00
2022-10-17T18:31:35.801Z,102457.25
2022-10-17T18:34:03.482Z,102462.56
2022-10-17T18:36:30.995Z,102419.44
2022-10-17T18:38:59.781Z,102436.09
2022-10-17T18:41:27.288Z,102429.06
2022-10-17T18:43:55.141Z,102459.91
2022-10-17T18:46:24.659Z,102463.41
2022-10-17T18:48:51.600Z,102463.41
2022-10-17T18:51:21.211Z,102462.50
2022-10-17T18:53:50.169Z,102464.25
2022-10-17T18:56:17.845Z,102464.28
2022-10-17T18:58:44.744Z,102457.25
2022-10-17T19:01:17.773Z,102459.06
2022-10-17T19:03:47.112Z,102460.00
2022-10-17T19:06:16.168Z,102468.81
2022-10-17T19:08:43.915Z,102458.22
2022-10-17T19:11:30.272Z,102462.66
2022-10-17T19:13:58.164Z,102460.88
2022-10-17T19:16:31.050Z,102454.75
2022-10-17T19:19:03.253Z,102456.50
2022-10-17T19:21:30.234Z,102438.91
2022-10-17T19:24:04.034Z,102458.28
2022-10-17T19:26:32.665Z,102468.00
2022-10-17T19:29:00.650Z,102462.72
2022-10-17T19:31:29.894Z,102460.09
2022-10-17T19:33:56.673Z,102471.50
2022-10-17T19:36:28.937Z,102478.53
2022-10-17T19:38:59.107Z,102464.47
2022-10-17T19:41:26.175Z,102465.38
2022-10-17T19:43:52.815Z,102484.72
2022-10-17T19:46:22.327Z,102473.28
2022-10-17T19:48:49.935Z,102458.31
2022-10-17T19:51:18.521Z,102475.91
2022-10-17T19:53:46.525Z,102489.06
2022-10-17T19:56:13.596Z,102485.56
2022-10-17T19:58:46.657Z,102495.22
2022-10-17T20:01:19.097Z,102486.41
2022-10-17T20:03:46.722Z,102483.75
2022-10-17T20:06:13.912Z,102485.53
2022-10-17T20:08:41.191Z,102486.41
2022-10-17T20:11:13.946Z,102488.19
2022-10-17T20:13:41.153Z,102481.13
2022-10-17T20:16:11.229Z,102480.25
2022-10-17T20:18:38.420Z,102483.75
2022-10-17T20:21:12.292Z,102479.28
2022-10-17T20:23:40.227Z,102471.34
2022-10-17T20:26:25.774Z,102488.94
2022-10-17T20:28:53.417Z,102479.22
2022-10-17T20:31:20.643Z,102491.53
2022-10-17T20:33:47.341Z,102443.97
2022-10-17T20:36:16.620Z,102490.59
2022-10-17T20:38:43.260Z,102480.09
2022-10-17T20:41:10.536Z,102481.88
2022-10-17T20:43:38.339Z,102479.22
2022-10-17T20:46:22.883Z,102469.44
2022-10-17T20:48:54.565Z,102491.09
2022-10-17T20:51:21.805Z,102477.84
2022-10-17T20:53:49.031Z,102485.78
2022-10-17T20:56:24.468Z,102479.75
2022-10-17T20:58:56.641Z,102478.91
2022-10-17T21:01:24.349Z,102481.53
2022-10-17T21:03:51.447Z,102478.06
2022-10-17T21:06:19.542Z,102457.78
2022-10-17T21:08:47.564Z,102464.75
2022-10-17T21:11:17.629Z,102469.00
2022-10-17T21:13:45.740Z,102484.94
2022-10-17T21:16:18.244Z,102477.84
2022-10-17T21:18:45.915Z,102465.56
2022-10-17T21:21:18.074Z,102467.16
2022-10-17T21:23:47.431Z,102472.47
2022-10-17T21:26:15.039Z,102470.75
2022-10-17T21:28:43.242Z,102465.38
2022-10-17T21:31:17.799Z,102471.56
2022-10-17T21:33:47.655Z,102467.88
2022-10-17T21:36:16.777Z,102459.06
2022-10-17T21:38:45.155Z,102472.25
2022-10-17T21:41:14.200Z,102433.38
2022-10-17T21:43:42.507Z,102464.34
2022-10-17T21:46:13.827Z,102471.41
2022-10-17T21:48:40.605Z,102438.84
2022-10-17T21:51:10.041Z,102463.38
2022-10-17T21:53:37.401Z,102475.03
2022-10-17T21:56:08.210Z,102477.72
2022-10-17T21:58:34.947Z,102464.28
2022-10-17T22:01:35.484Z,102463.41
2022-10-17T22:04:04.180Z,102455.59
2022-10-17T22:06:39.805Z,102471.38
2022-10-17T22:09:12.217Z,102446.63
2022-10-17T22:11:38.984Z,102478.53
2022-10-17T22:14:14.943Z,102461.00
2022-10-17T22:16:42.365Z,102479.41
2022-10-17T22:19:11.504Z,102450.31
2022-10-17T22:21:38.227Z,102478.41
2022-10-17T22:24:08.136Z,102477.44
2022-10-17T22:26:36.977Z,102465.97
2022-10-17T22:29:05.407Z,102472.97
2022-10-17T22:31:32.322Z,102466.75
2022-10-17T22:33:59.346Z,102480.66
2022-10-17T22:36:26.244Z,102476.88
2022-10-17T22:38:53.132Z,102467.91
2022-10-17T22:41:20.581Z,102469.72
2022-10-17T22:43:47.286Z,102470.66
2022-10-17T22:46:16.233Z,102446.84
2022-10-17T22:48:43.628Z,102478.56
2022-10-17T22:51:10.901Z,102479.38
2022-10-17T22:53:37.894Z,102466.19
2022-10-17T22:56:09.323Z,102464.28
2022-10-17T22:58:36.310Z,102473.91
2022-10-17T23:01:04.551Z,102470.31
2022-10-17T23:03:31.840Z,102485.16
2022-10-17T23:05:59.209Z,102471.97
2022-10-17T23:08:26.586Z,102478.84
2022-10-17T23:10:53.614Z,102478.81
2022-10-17T23:13:21.949Z,102477.78
2022-10-17T23:15:56.525Z,102474.97
2022-10-17T23:18:24.786Z,102475.81
2022-10-17T23:20:52.089Z,102480.19
2022-10-17T23:23:19.501Z,102474.13
2022-10-17T23:25:46.877Z,102469.56
2022-10-17T23:28:14.111Z,102472.25
2022-10-17T23:30:41.112Z,102460.47
2022-10-17T23:33:10.426Z,102476.31
2022-10-17T23:35:37.083Z,102478.16
2022-10-17T23:38:03.860Z,102467.72
2022-10-17T23:40:30.542Z,102469.56
2022-10-17T23:42:57.189Z,102479.28
2022-10-17T23:45:23.930Z,102470.53
2022-10-17T23:47:50.583Z,102467.94
2022-10-17T23:50:17.291Z,102457.25
2022-10-17T23:52:43.895Z,102455.56
2022-10-17T23:55:10.763Z,102452.06
2022-10-17T23:57:37.385Z,102448.56
